Time;durP1;ratioP1;P1;durP2;ratioP2;P2;SDS_P1;SDS_P2;PMS_P1;PMS_P2;Temp;Humidity;BMP_temperature;BMP_pressure;BME280_temperature;BME280_humidity;BME280_pressure;Samples;Min_cycle;Max_cycle;Signal;HPM_P1;HPM_P2
2023/03/01 00:02:21;;;;;;;27.92;13.02;;;-0.60;99.90;;;;;;4978457;28;20426;-62
2023/03/01 00:04:46;;;;;;;21.30;12.48;;;-0.50;99.90;;;;;;4973665;28;20051;-63
2023/03/01 00:07:12;;;;;;;15.50;11.10;;;-0.60;99.90;;;;;;4972762;28;20457;-63
2023/03/01 00:09:39;;;;;;;22.55;13.23;;;-0.60;99.90;;;;;;4954309;28;20054;-62
2023/03/01 00:12:06;;;;;;;22.20;13.27;;;-0.60;99.90;;;;;;4944541;28;20109;-63
2023/03/01 00:14:32;;;;;;;23.58;12.90;;;-0.70;99.90;;;;;;4972442;28;20050;-63
2023/03/01 00:16:58;;;;;;;20.15;12.45;;;-0.70;99.90;;;;;;4974339;28;20031;-63
2023/03/01 00:19:24;;;;;;;26.05;15.40;;;-0.80;99.90;;;;;;4957716;28;20178;-63
2023/03/01 00:21:49;;;;;;;24.38;15.30;;;-0.80;99.90;;;;;;4972641;28;20397;-63
2023/03/01 00:24:15;;;;;;;24.48;14.00;;;-0.90;99.90;;;;;;4975010;28;20043;-63
2023/03/01 00:26:41;;;;;;;22.48;14.60;;;-0.90;99.90;;;;;;4976497;28;20054;-63
2023/03/01 00:29:07;;;;;;;23.10;15.45;;;-0.90;99.90;;;;;;4973071;28;20105;-63
2023/03/01 00:31:33;;;;;;;22.30;13.88;;;-0.90;99.90;;;;;;4952881;28;20058;-63
2023/03/01 00:34:03;;;;;;;22.35;13.25;;;-0.90;99.90;;;;;;4974333;28;20046;-62
2023/03/01 00:36:32;;;;;;;34.63;16.42;;;-0.90;99.90;;;;;;4972612;28;20030;-63
2023/03/01 00:38:58;;;;;;;22.80;15.05;;;-0.90;99.90;;;;;;4954304;28;20175;-62
2023/03/01 00:41:26;;;;;;;22.52;15.05;;;-0.90;99.90;;;;;;4971960;28;20121;-62
2023/03/01 00:43:52;;;;;;;26.45;14.55;;;-0.90;99.90;;;;;;4971009;28;20039;-62
2023/03/01 00:46:22;;;;;;;26.13;15.07;;;-1.00;99.90;;;;;;4972125;28;20453;-63
2023/03/01 00:48:48;;;;;;;25.35;13.52;;;-1.00;99.90;;;;;;4970076;28;20043;-63
2023/03/01 00:51:23;;;;;;;22.20;11.98;;;-0.90;99.90;;;;;;4970829;28;20046;-63
2023/03/01 00:53:51;;;;;;;37.95;16.80;;;-1.00;99.90;;;;;;4968856;28;20105;-62
2023/03/01 00:56:17;;;;;;;26.13;15.32;;;-1.10;99.90;;;;;;4968951;28;20073;-62
2023/03/01 00:58:43;;;;;;;25.00;15.63;;;-1.20;99.90;;;;;;4971255;28;20121;-62
2023/03/01 01:01:16;;;;;;;28.63;17.50;;;-1.10;99.90;;;;;;4971921;28;20077;-63
2023/03/01 01:04:07;;;;;;;28.60;16.90;;;-1.20;99.90;;;;;;4969720;28;20165;-63
2023/03/01 01:06:36;;;;;;;26.00;13.40;;;-1.10;99.90;;;;;;4970570;28;20039;-63
2023/03/01 01:09:04;;;;;;;22.98;14.65;;;-1.20;99.90;;;;;;4970928;28;20070;-62
2023/03/01 01:11:31;;;;;;;30.75;17.17;;;-1.10;99.90;;;;;;4954026;28;20108;-62
2023/03/01 01:13:57;;;;;;;30.20;16.27;;;-1.20;99.90;;;;;;4969104;28;20333;-63
2023/03/01 01:16:26;;;;;;;28.27;16.38;;;-1.20;99.90;;;;;;4952212;28;20043;-62
2023/03/01 01:18:53;;;;;;;27.92;15.25;;;-1.20;99.90;;;;;;4967498;28;20069;-62
2023/03/01 01:21:22;;;;;;;29.55;19.30;;;-1.30;99.90;;;;;;4972613;28;20062;-62
2023/03/01 01:23:48;;;;;;;30.90;17.38;;;-1.30;99.90;;;;;;4969430;28;20153;-63
2023/03/01 01:26:20;;;;;;;32.67;17.27;;;-1.30;99.90;;;;;;4970608;28;20414;-63
2023/03/01 01:28:46;;;;;;;35.95;17.05;;;-1.30;99.90;;;;;;4969730;28;20508;-62
2023/03/01 01:31:12;;;;;;;26.42;16.45;;;-1.40;99.90;;;;;;4972661;28;20077;-63
2023/03/01 01:33:38;;;;;;;26.10;16.27;;;-1.40;99.90;;;;;;4969763;28;20047;-62
2023/03/01 01:36:07;;;;;;;31.25;17.02;;;-1.30;99.90;;;;;;4967226;28;20109;-62
2023/03/01 01:38:34;;;;;;;29.45;16.60;;;-1.40;99.90;;;;;;4971415;28;20448;-63
2023/03/01 01:41:00;;;;;;;29.35;17.45;;;-1.40;99.90;;;;;;4968595;28;20336;-62
2023/03/01 01:43:38;;;;;;;29.65;18.20;;;-1.30;99.90;;;;;;4971818;28;20049;-63
2023/03/01 01:46:19;;;;;;;37.17;17.30;;;-1.30;99.90;;;;;;4968838;28;20122;-62
2023/03/01 01:49:31;;;;;;;27.10;16.73;;;-1.30;99.90;;;;;;4967785;28;20189;-63
2023/03/01 01:52:16;;;;;;;29.90;17.02;;;-1.40;99.90;;;;;;4968728;28;20085;-62
2023/03/01 01:54:50;;;;;;;31.75;18.13;;;-1.40;99.90;;;;;;4969404;28;20125;-62
2023/03/01 01:57:25;;;;;;;34.85;18.20;;;-1.50;99.90;;;;;;4972375;28;20984;-63
2023/03/01 01:59:54;;;;;;;33.25;18.88;;;-1.40;99.90;;;;;;4952391;28;20148;-62
2023/03/01 02:02:20;;;;;;;29.92;16.02;;;-1.50;99.90;;;;;;4970996;28;20039;-63
2023/03/01 02:04:48;;;;;;;32.78;18.40;;;-1.50;99.90;;;;;;4968161;28;20204;-62
2023/03/01 02:07:21;;;;;;;31.45;16.33;;;-1.50;99.90;;;;;;4952136;28;20089;-63
2023/03/01 02:09:49;;;;;;;29.83;15.90;;;-1.50;99.90;;;;;;4969269;28;20433;-62
2023/03/01 02:12:22;;;;;;;28.48;16.92;;;-1.50;99.90;;;;;;4969078;28;20046;-62
2023/03/01 02:14:48;;;;;;;23.73;14.30;;;-1.50;99.90;;;;;;4967342;28;20093;-62
2023/03/01 02:17:16;;;;;;;23.63;14.73;;;-1.50;99.90;;;;;;4968888;28;20043;-62
2023/03/01 02:20:19;;;;;;;22.80;12.13;;;-1.40;99.90;;;;;;4948656;28;20108;-63
2023/03/01 02:22:46;;;;;;;24.67;12.77;;;-1.40;99.90;;;;;;4970594;28;20134;-63
2023/03/01 02:25:23;;;;;;;574.78;17.90;;;-1.50;99.90;;;;;;4967766;28;20125;-63
2023/03/01 02:28:23;;;;;;;516.88;15.68;;;-1.50;99.90;;;;;;4951017;28;20047;-63
2023/03/01 02:33:36;;;;;;;229.93;8.85;;;-1.50;99.90;;;;;;4967260;28;20047;-62
2023/03/01 02:36:07;;;;;;;152.77;8.68;;;-1.50;99.90;;;;;;4969571;28;20086;-63
2023/03/01 02:38:33;;;;;;;154.85;7.47;;;-1.50;99.90;;;;;;4969102;28;20473;-63
2023/03/01 02:41:00;;;;;;;48.03;8.52;;;-1.50;99.90;;;;;;4967688;28;20121;-63
2023/03/01 02:43:31;;;;;;;34.65;9.05;;;-1.50;99.90;;;;;;4969570;28;20046;-63
2023/03/01 02:46:03;;;;;;;;;;;-1.60;99.90;;;;;;4967971;28;20144;-63
2023/03/01 02:48:41;;;;;;;22.85;9.82;;;-1.60;99.90;;;;;;4969443;28;19929;-62
2023/03/01 02:51:33;;;;;;;24.17;12.05;;;-1.60;99.90;;;;;;4967060;28;20058;-62
2023/03/01 02:54:12;;;;;;;19.70;12.23;;;-1.70;99.90;;;;;;4949076;28;20460;-63
2023/03/01 02:56:38;;;;;;;26.55;13.27;;;-1.70;99.90;;;;;;4969118;28;20054;-63
2023/03/01 02:59:04;;;;;;;27.38;13.55;;;-1.70;99.90;;;;;;4940525;28;20049;-63
2023/03/01 03:01:36;;;;;;;23.50;14.38;;;-1.70;99.90;;;;;;4967665;28;20541;-63
2023/03/01 03:04:07;;;;;;;23.17;13.07;;;-1.70;99.90;;;;;;4968256;28;20417;-62
2023/03/01 03:06:33;;;;;;;15.63;10.45;;;-1.70;99.90;;;;;;4947917;28;20382;-63
2023/03/01 03:08:59;;;;;;;20.40;12.32;;;-1.60;99.90;;;;;;4970511;28;20046;-63
2023/03/01 03:11:25;;;;;;;20.85;11.98;;;-1.80;99.90;;;;;;4967146;28;20092;-76
2023/03/01 03:13:51;;;;;;;25.08;13.50;;;-1.80;99.90;;;;;;4973399;28;20109;-74
2023/03/01 03:16:18;;;;;;;22.13;12.05;;;-1.80;99.90;;;;;;4971930;28;20480;-87
2023/03/01 03:18:44;;;;;;;27.00;12.82;;;-1.80;99.90;;;;;;4974039;28;20041;-63
2023/03/01 03:21:12;;;;;;;53.13;18.63;;;-1.80;99.90;;;;;;4973614;28;20089;-63
2023/03/01 03:23:38;;;;;;;159.95;17.75;;;-1.70;99.90;;;;;;4967544;28;20109;-63
2023/03/01 03:26:05;;;;;;;228.82;18.75;;;-1.70;99.90;;;;;;4952259;28;20047;-63
2023/03/01 03:28:34;;;;;;;426.45;22.00;;;-1.70;99.90;;;;;;4965943;28;20484;-63
2023/03/01 03:31:04;;;;;;;298.15;14.43;;;-1.70;99.90;;;;;;4968919;28;20047;-63
2023/03/01 03:33:30;;;;;;;362.85;15.00;;;-1.70;99.90;;;;;;4956765;28;20067;-62
2023/03/01 03:35:56;;;;;;;275.70;12.80;;;-1.70;99.90;;;;;;4983757;28;20046;-62
2023/03/01 03:38:22;;;;;;;71.20;13.10;;;-1.70;99.90;;;;;;4982910;28;20104;-62
2023/03/01 03:41:08;;;;;;;115.15;12.15;;;-1.70;99.90;;;;;;4984135;28;20054;-63
2023/03/01 03:43:36;;;;;;;15.95;10.00;;;-1.80;99.90;;;;;;4969713;28;20519;-62
2023/03/01 03:46:05;;;;;;;14.90;9.88;;;-1.80;99.90;;;;;;4967962;28;20635;-63
2023/03/01 03:48:38;;;;;;;18.13;11.77;;;-1.90;99.90;;;;;;4950674;28;20497;-63
2023/03/01 03:51:05;;;;;;;18.55;10.60;;;-1.80;99.90;;;;;;4976956;28;20042;-62
2023/03/01 03:53:32;;;;;;;21.80;12.98;;;-1.80;99.90;;;;;;4981664;28;20054;-63
2023/03/01 03:55:58;;;;;;;51.67;12.65;;;-1.90;99.90;;;;;;4984025;28;20042;-62
2023/03/01 03:58:25;;;;;;;56.13;12.93;;;-1.90;99.90;;;;;;4970886;28;20134;-62
2023/03/01 04:00:55;;;;;;;17.15;10.82;;;-1.90;99.90;;;;;;4969515;28;20049;-63
2023/03/01 04:03:23;;;;;;;17.25;11.82;;;-1.80;99.90;;;;;;4969853;28;20058;-63
2023/03/01 04:05:52;;;;;;;21.13;11.95;;;-1.80;99.90;;;;;;4963204;28;20050;-62
2023/03/01 04:08:22;;;;;;;13.82;11.05;;;-1.80;99.90;;;;;;4969916;28;20046;-63
2023/03/01 04:10:53;;;;;;;18.58;12.20;;;-1.80;99.90;;;;;;4967238;28;20209;-63
2023/03/01 04:13:21;;;;;;;18.33;12.23;;;-1.80;99.90;;;;;;4967266;28;20066;-62
2023/03/01 04:15:52;;;;;;;16.75;11.95;;;-1.80;99.90;;;;;;4963873;28;20088;-62
2023/03/01 04:18:20;;;;;;;22.58;10.98;;;-1.90;99.90;;;;;;4972097;28;20097;-62
2023/03/01 04:20:46;;;;;;;20.30;12.07;;;-1.90;99.90;;;;;;4968755;28;20505;-62
2023/03/01 04:23:15;;;;;;;16.63;11.82;;;-1.90;99.90;;;;;;4970916;28;20105;-62
2023/03/01 04:25:53;;;;;;;11.57;9.30;;;-2.00;99.90;;;;;;4969371;28;20505;-62
2023/03/01 04:28:25;;;;;;;16.65;10.85;;;-2.10;99.90;;;;;;4969890;28;20054;-63
2023/03/01 04:30:55;;;;;;;16.70;11.70;;;-2.10;99.90;;;;;;4970581;28;20379;-63
2023/03/01 04:33:21;;;;;;;18.42;12.63;;;-2.10;99.90;;;;;;4968978;28;20061;-63
2023/03/01 04:35:49;;;;;;;21.33;11.63;;;-2.20;99.90;;;;;;4970592;28;20042;-63
2023/03/01 04:38:16;;;;;;;17.45;13.07;;;-2.20;99.90;;;;;;4969022;28;20074;-63
2023/03/01 04:40:43;;;;;;;25.58;15.25;;;-2.10;99.90;;;;;;4971528;28;20049;-62
2023/03/01 04:43:10;;;;;;;39.10;16.05;;;-2.20;99.90;;;;;;4970066;28;20082;-63
2023/03/01 04:45:36;;;;;;;129.43;16.73;;;-2.10;99.90;;;;;;4969646;28;20702;-62
2023/03/01 04:48:02;;;;;;;77.88;15.85;;;-2.10;99.90;;;;;;4965791;28;20058;-62
2023/03/01 04:50:28;;;;;;;31.83;16.73;;;-2.10;99.90;;;;;;4970662;28;20433;-62
2023/03/01 04:52:56;;;;;;;30.17;15.95;;;-2.10;99.90;;;;;;4977480;28;20126;-63
2023/03/01 04:55:27;;;;;;;16.13;11.00;;;-2.00;99.90;;;;;;4968625;28;20105;-63
2023/03/01 04:57:54;;;;;;;17.48;13.05;;;-2.10;99.90;;;;;;4970001;28;20105;-62
2023/03/01 05:00:20;;;;;;;87.15;11.43;;;-2.10;99.90;;;;;;4954726;28;20075;-63
2023/03/01 05:02:55;;;;;;;245.30;13.15;;;-2.10;99.90;;;;;;4973821;28;20097;-63
2023/03/01 05:05:35;;;;;;;212.75;12.23;;;-2.30;99.90;;;;;;4970192;28;20038;-63
2023/03/01 05:08:07;;;;;;;17.70;12.05;;;-2.30;99.90;;;;;;4968198;28;20405;-63
2023/03/01 05:10:35;;;;;;;16.13;10.55;;;-2.30;99.90;;;;;;4970320;28;20043;-63
2023/03/01 05:13:03;;;;;;;14.50;10.38;;;-2.30;99.90;;;;;;4968515;28;20046;-63
2023/03/01 05:15:30;;;;;;;14.20;10.00;;;-2.30;99.90;;;;;;4969468;28;20050;-62
2023/03/01 05:17:59;;;;;;;285.85;14.45;;;-2.30;99.90;;;;;;4969112;28;20042;-63
2023/03/01 05:20:26;;;;;;;135.27;12.82;;;-2.20;99.90;;;;;;4961348;28;20105;-63
2023/03/01 05:22:58;;;;;;;274.42;13.38;;;-2.20;99.90;;;;;;4984106;28;20521;-62
2023/03/01 05:25:24;;;;;;;207.25;12.40;;;-2.20;99.90;;;;;;4967586;28;20105;-62
2023/03/01 05:27:50;;;;;;;252.07;13.30;;;-2.20;99.90;;;;;;4969578;28;20050;-63
2023/03/01 05:30:17;;;;;;;234.15;13.57;;;-2.30;99.90;;;;;;4969092;28;20482;-62
2023/03/01 05:32:48;;;;;;;201.15;12.70;;;-2.30;99.90;;;;;;4972769;28;20039;-62
2023/03/01 05:35:16;;;;;;;46.38;11.93;;;-2.30;99.90;;;;;;4974436;28;20117;-62
2023/03/01 05:37:47;;;;;;;52.60;12.93;;;-2.20;99.90;;;;;;4977632;28;20152;-63
2023/03/01 05:40:16;;;;;;;307.80;13.90;;;-2.20;99.90;;;;;;4982685;28;20042;-62
2023/03/01 05:42:43;;;;;;;207.98;12.27;;;-2.20;99.90;;;;;;4978597;28;20065;-62
2023/03/01 05:45:10;;;;;;;508.52;15.68;;;-2.30;99.90;;;;;;4975994;28;20055;-63
2023/03/01 05:47:35;;;;;;;452.63;16.75;;;-2.30;99.90;;;;;;4974679;28;20034;-63
2023/03/01 05:50:02;;;;;;;480.20;15.82;;;-2.40;99.90;;;;;;4977544;28;20404;-62
2023/03/01 05:52:27;;;;;;;163.48;11.27;;;-2.40;99.90;;;;;;4975980;28;20050;-62
2023/03/01 05:54:53;;;;;;;461.10;15.10;;;-2.40;99.90;;;;;;4975981;28;20046;-62
2023/03/01 05:57:19;;;;;;;474.58;15.65;;;-2.40;99.90;;;;;;4983276;28;20034;-62
2023/03/01 05:59:45;;;;;;;662.85;17.52;;;-2.30;99.90;;;;;;4978019;28;20050;-62
2023/03/01 06:02:11;;;;;;;339.02;12.93;;;-2.30;99.90;;;;;;4981144;28;20449;-62
2023/03/01 06:04:37;;;;;;;708.38;17.17;;;-2.30;99.90;;;;;;4980154;28;20105;-62
2023/03/01 06:07:02;;;;;;;370.75;12.18;;;-2.30;99.90;;;;;;4979743;28;20514;-62
2023/03/01 06:09:28;;;;;;;204.07;14.68;;;-2.30;99.90;;;;;;4978364;28;20512;-62
2023/03/01 06:11:54;;;;;;;143.70;14.35;;;-2.30;99.90;;;;;;4960352;28;20046;-62
2023/03/01 06:14:20;;;;;;;121.97;15.77;;;-2.40;99.90;;;;;;4972622;28;20437;-62
2023/03/01 06:16:46;;;;;;;117.93;14.02;;;-2.40;99.90;;;;;;4971172;28;20172;-63
2023/03/01 06:19:12;;;;;;;88.43;14.10;;;-2.40;99.90;;;;;;4968598;28;20078;-62
2023/03/01 06:21:37;;;;;;;274.67;14.68;;;-2.50;99.90;;;;;;4966654;28;20053;-62
2023/03/01 06:24:05;;;;;;;89.30;12.45;;;-2.50;99.90;;;;;;4976159;28;20046;-62
2023/03/01 06:26:31;;;;;;;176.52;13.05;;;-2.50;99.90;;;;;;4969093;28;20054;-62
2023/03/01 06:28:57;;;;;;;104.80;11.18;;;-2.60;99.90;;;;;;4964643;28;20116;-62
2023/03/01 06:31:22;;;;;;;153.15;11.10;;;-2.60;99.90;;;;;;4968615;28;20058;-62
2023/03/01 06:33:48;;;;;;;183.38;10.98;;;-2.60;99.90;;;;;;4967312;28;20135;-63
2023/03/01 06:36:14;;;;;;;95.72;8.20;;;-2.60;99.90;;;;;;4969310;28;20068;-63
2023/03/01 06:38:40;;;;;;;187.25;8.63;;;-2.60;99.90;;;;;;4972472;28;20046;-62
2023/03/01 06:41:06;;;;;;;234.63;9.02;;;-2.60;99.90;;;;;;4968013;28;20038;-62
2023/03/01 06:43:32;;;;;;;234.60;10.82;;;-2.70;99.90;;;;;;4980480;28;20038;-62
2023/03/01 06:45:58;;;;;;;443.05;12.80;;;-2.80;99.90;;;;;;4987480;28;20057;-62
2023/03/01 06:48:23;;;;;;;313.35;10.98;;;-2.80;99.90;;;;;;4970710;28;20058;-62
2023/03/01 06:50:49;;;;;;;146.43;9.43;;;-2.70;99.90;;;;;;4967274;28;20118;-63
2023/03/01 06:53:15;;;;;;;140.15;10.15;;;-2.70;99.90;;;;;;4968124;28;20054;-62
2023/03/01 06:55:41;;;;;;;51.97;9.27;;;-2.60;99.90;;;;;;4966385;28;20062;-62
2023/03/01 06:58:08;;;;;;;19.38;8.18;;;-2.60;99.90;;;;;;4967794;28;20074;-62
2023/03/01 07:00:37;;;;;;;10.82;8.75;;;-2.50;99.90;;;;;;4966337;28;20049;-63
2023/03/01 07:03:03;;;;;;;44.80;8.93;;;-2.40;99.90;;;;;;4968174;28;20050;-63
2023/03/01 07:05:30;;;;;;;77.30;9.98;;;-2.30;99.90;;;;;;4966214;28;20490;-62
2023/03/01 07:07:56;;;;;;;39.70;10.20;;;-2.20;99.90;;;;;;4966112;28;20078;-63
2023/03/01 07:10:22;;;;;;;111.55;11.27;;;-2.20;99.90;;;;;;4968167;28;20369;-62
2023/03/01 07:12:47;;;;;;;134.40;10.23;;;-2.10;99.90;;;;;;4964947;28;20101;-62
2023/03/01 07:15:14;;;;;;;210.50;12.40;;;-2.00;99.90;;;;;;4967835;28;20050;-62
2023/03/01 07:17:40;;;;;;;152.98;13.10;;;-2.00;99.90;;;;;;4966082;28;20054;-62
2023/03/01 07:20:06;;;;;;;21.40;12.05;;;-2.00;99.90;;;;;;4968595;28;20047;-63
2023/03/01 07:22:32;;;;;;;20.73;12.55;;;-1.90;99.90;;;;;;4965707;28;20482;-63
2023/03/01 07:24:57;;;;;;;17.95;11.50;;;-1.80;99.90;;;;;;4974262;28;20049;-63
2023/03/01 07:27:23;;;;;;;20.40;13.13;;;-1.70;99.90;;;;;;4966524;28;20178;-62
2023/03/01 07:29:49;;;;;;;23.85;13.85;;;-1.60;99.90;;;;;;4965198;28;20042;-63
2023/03/01 07:32:14;;;;;;;92.97;16.63;;;-1.60;99.90;;;;;;4967897;28;20050;-63
2023/03/01 07:34:40;;;;;;;37.92;14.50;;;-1.50;99.90;;;;;;4966025;28;20066;-63
2023/03/01 07:37:06;;;;;;;64.68;13.40;;;-1.40;99.90;;;;;;4973414;28;20501;-63
2023/03/01 07:39:32;;;;;;;72.75;13.30;;;-1.30;99.90;;;;;;4970679;28;20039;-63
2023/03/01 07:41:57;;;;;;;89.82;16.02;;;-1.20;99.90;;;;;;4967183;28;20544;-63
2023/03/01 07:44:23;;;;;;;69.20;17.90;;;-1.10;99.90;;;;;;4976115;28;20147;-63
2023/03/01 07:46:49;;;;;;;81.75;20.05;;;-1.00;99.90;;;;;;4967840;28;20050;-63
2023/03/01 07:49:14;;;;;;;57.35;19.92;;;-0.90;99.90;;;;;;4968607;28;20054;-63
2023/03/01 07:51:41;;;;;;;40.15;18.73;;;-0.80;99.90;;;;;;4971461;28;20050;-63
2023/03/01 07:54:07;;;;;;;225.27;28.73;;;-0.70;99.90;;;;;;4970235;28;20505;-63
2023/03/01 07:56:33;;;;;;;260.65;34.75;;;-0.60;99.90;;;;;;4969363;28;20081;-63
2023/03/01 07:58:59;;;;;;;222.98;39.47;;;-0.50;99.90;;;;;;4973038;28;20046;-64
2023/03/01 08:01:25;;;;;;;156.00;37.35;;;-0.40;99.90;;;;;;4974713;28;20065;-63
2023/03/01 08:03:51;;;;;;;289.80;53.58;;;-0.30;99.90;;;;;;4974390;28;20501;-63
2023/03/01 08:06:17;;;;;;;316.92;60.25;;;-0.20;99.90;;;;;;4971860;28;20518;-63
2023/03/01 08:08:43;;;;;;;364.92;58.40;;;-0.10;99.90;;;;;;4971217;28;20070;-64
2023/03/01 08:11:12;;;;;;;307.15;56.78;;;0.10;99.90;;;;;;4974348;28;20077;-64
2023/03/01 08:13:38;;;;;;;319.35;54.25;;;0.10;99.90;;;;;;4980812;28;20049;-64
2023/03/01 08:16:10;;;;;;;188.05;42.03;;;0.20;99.90;;;;;;4977839;28;20117;-64
2023/03/01 08:18:36;;;;;;;104.35;22.48;;;0.20;99.90;;;;;;4973077;28;20059;-64
2023/03/01 08:21:06;;;;;;;119.32;26.85;;;0.30;99.90;;;;;;4978021;28;20080;-63
2023/03/01 08:23:32;;;;;;;;;;;0.40;99.90;;;;;;4974106;28;20106;-64
2023/03/01 08:26:06;;;;;;;118.32;29.98;;;0.50;99.90;;;;;;4977719;28;19921;-64
2023/03/01 08:28:32;;;;;;;51.22;21.98;;;0.60;99.90;;;;;;4988599;28;20051;-64
2023/03/01 08:30:58;;;;;;;63.92;21.58;;;0.70;99.90;;;;;;4973300;28;20046;-64
2023/03/01 08:33:24;;;;;;;74.15;19.40;;;0.80;99.90;;;;;;4959210;28;20039;-64
2023/03/01 08:35:49;;;;;;;82.75;20.20;;;0.90;99.90;;;;;;4972144;28;20405;-64
2023/03/01 08:38:15;;;;;;;107.47;21.25;;;1.00;99.90;;;;;;4975728;28;20065;-64
2023/03/01 08:40:41;;;;;;;102.35;21.58;;;1.10;99.90;;;;;;4957806;28;20050;-64
2023/03/01 08:43:06;;;;;;;102.38;24.50;;;1.20;99.90;;;;;;4971426;28;20035;-64
2023/03/01 08:45:32;;;;;;;79.88;22.73;;;1.30;99.90;;;;;;4976546;28;20441;-64
2023/03/01 08:47:58;;;;;;;79.72;17.90;;;1.40;99.90;;;;;;4975231;28;20046;-64
2023/03/01 08:50:24;;;;;;;47.03;17.00;;;1.50;99.90;;;;;;4974114;28;20532;-64
2023/03/01 08:52:50;;;;;;;34.67;17.52;;;1.50;99.90;;;;;;4972213;28;20050;-64
2023/03/01 08:55:17;;;;;;;32.30;15.55;;;1.60;99.90;;;;;;4970291;28;20182;-64
2023/03/01 08:57:43;;;;;;;36.58;15.85;;;1.70;99.90;;;;;;4951397;28;20062;-65
2023/03/01 09:00:11;;;;;;;45.80;20.25;;;1.80;99.90;;;;;;4965264;28;20405;-64
2023/03/01 09:02:37;;;;;;;44.83;20.20;;;1.90;99.90;;;;;;4969412;28;20047;-64
2023/03/01 09:05:03;;;;;;;43.85;19.67;;;2.00;99.90;;;;;;4985347;28;20605;-64
2023/03/01 09:07:28;;;;;;;38.50;22.13;;;2.00;99.90;;;;;;4983224;28;20106;-64
2023/03/01 09:09:55;;;;;;;33.65;19.75;;;2.20;99.90;;;;;;4968478;28;20058;-64
2023/03/01 09:12:21;;;;;;;25.77;17.55;;;2.20;99.90;;;;;;4969319;28;20041;-64
2023/03/01 09:14:47;;;;;;;24.35;16.45;;;2.40;99.90;;;;;;4968406;28;20557;-63
2023/03/01 09:17:12;;;;;;;27.02;16.48;;;2.40;99.90;;;;;;4975057;28;20130;-64
2023/03/01 09:19:38;;;;;;;20.38;14.02;;;2.50;99.90;;;;;;4968709;28;20053;-63
2023/03/01 09:22:04;;;;;;;20.60;14.27;;;2.50;99.90;;;;;;4968648;28;20531;-64
2023/03/01 09:24:30;;;;;;;20.35;14.82;;;2.50;99.90;;;;;;4970994;28;20046;-64
2023/03/01 09:26:56;;;;;;;18.70;14.13;;;2.50;99.90;;;;;;4969703;28;20049;-64
2023/03/01 09:29:23;;;;;;;21.58;14.30;;;2.50;99.90;;;;;;4967945;28;20509;-64
2023/03/01 09:31:48;;;;;;;22.35;13.43;;;2.50;99.90;;;;;;4978224;28;20119;-63
2023/03/01 09:34:22;;;;;;;21.98;14.07;;;2.50;99.90;;;;;;4981739;28;20485;-64
2023/03/01 09:36:48;;;;;;;23.55;16.35;;;2.60;99.90;;;;;;4972649;28;20385;-63
2023/03/01 09:39:14;;;;;;;25.55;16.15;;;2.60;99.90;;;;;;4977951;28;20050;-64
2023/03/01 09:42:01;;;;;;;26.10;17.23;;;2.80;99.90;;;;;;4978696;28;20205;-64
2023/03/01 09:45:01;;;;;;;28.30;17.17;;;2.90;99.90;;;;;;4978112;28;20055;-64
2023/03/01 09:47:31;;;;;;;29.95;18.27;;;3.00;99.90;;;;;;4976232;28;20318;-64
2023/03/01 09:50:12;;;;;;;60.08;33.13;;;3.10;99.90;;;;;;4981786;28;20089;-63
2023/03/01 09:53:06;;;;;;;75.10;38.33;;;3.20;99.90;;;;;;4975731;28;20050;-64
2023/03/01 09:55:39;;;;;;;56.92;29.33;;;3.30;99.90;;;;;;4974985;28;21528;-64
2023/03/01 09:58:29;;;;;;;59.53;33.45;;;3.40;99.90;;;;;;4973207;28;20053;-64
2023/03/01 10:00:59;;;;;;;70.05;38.75;;;3.60;99.90;;;;;;4976845;28;20130;-64
2023/03/01 10:03:34;;;;;;;77.93;39.08;;;3.70;99.90;;;;;;4974685;28;20106;-64
2023/03/01 10:06:08;;;;;;;83.20;38.15;;;3.80;99.90;;;;;;4977315;28;20053;-64
2023/03/01 10:08:52;;;;;;;81.30;39.42;;;4.00;99.90;;;;;;4976664;28;20038;-64
2023/03/01 10:11:27;;;;;;;89.32;40.33;;;4.10;99.90;;;;;;4968037;28;20038;-63
2023/03/01 10:14:32;;;;;;;90.82;40.60;;;4.30;99.90;;;;;;4968060;28;20054;-63
2023/03/01 10:17:02;;;;;;;85.75;36.28;;;4.40;99.90;;;;;;4968908;28;20047;-63
2023/03/01 10:19:44;;;;;;;86.97;38.92;;;4.50;99.90;;;;;;4979068;28;20080;-63
2023/03/01 10:22:18;;;;;;;75.05;36.75;;;4.60;99.90;;;;;;4979582;28;20084;-63
2023/03/01 10:24:46;;;;;;;98.07;38.60;;;4.60;99.90;;;;;;4973764;28;20442;-63
2023/03/01 10:27:19;;;;;;;83.65;37.50;;;4.70;99.90;;;;;;4968651;28;20055;-63
2023/03/01 10:30:02;;;;;;;78.30;32.38;;;4.70;99.90;;;;;;4973837;28;20097;-63
2023/03/01 10:32:29;;;;;;;75.68;32.75;;;4.80;99.90;;;;;;4971294;28;20053;-63
2023/03/01 10:34:54;;;;;;;73.10;31.58;;;4.90;99.90;;;;;;4970809;28;20038;-63
2023/03/01 10:37:22;;;;;;;71.72;33.45;;;4.90;99.90;;;;;;4974095;28;20508;-63
2023/03/01 10:39:58;;;;;;;72.65;34.50;;;4.90;99.90;;;;;;4967984;28;20492;-63
2023/03/01 10:42:31;;;;;;;64.30;30.50;;;5.00;99.90;;;;;;4976498;28;20437;-64
2023/03/01 10:44:57;;;;;;;63.60;29.98;;;5.10;99.90;;;;;;4968364;28;20121;-63
2023/03/01 10:47:26;;;;;;;56.35;28.58;;;5.20;99.90;;;;;;4968929;28;20046;-63
2023/03/01 10:49:57;;;;;;;53.33;26.48;;;5.20;99.60;;;;;;4961027;28;20125;-64
2023/03/01 10:52:35;;;;;;;51.28;27.13;;;5.30;99.20;;;;;;4967723;28;20066;-64
2023/03/01 10:55:28;;;;;;;51.25;27.52;;;5.30;97.40;;;;;;4972370;28;20080;-63
2023/03/01 10:58:21;;;;;;;45.47;24.15;;;5.40;97.90;;;;;;4968803;28;20047;-63
2023/03/01 11:00:56;;;;;;;49.58;25.13;;;5.60;97.10;;;;;;4974523;28;20137;-63
2023/03/01 11:03:33;;;;;;;45.72;25.80;;;5.70;94.30;;;;;;4970063;28;20054;-63
2023/03/01 11:06:11;;;;;;;50.25;26.63;;;5.80;94.50;;;;;;4949255;28;20061;-63
2023/03/01 11:08:37;;;;;;;55.10;26.23;;;5.90;94.70;;;;;;4979048;28;20054;-63
2023/03/01 11:11:24;;;;;;;50.08;25.65;;;6.00;93.00;;;;;;4951690;28;20038;-63
2023/03/01 11:14:19;;;;;;;37.15;23.02;;;6.10;93.10;;;;;;4969651;28;20039;-64
2023/03/01 11:16:47;;;;;;;37.55;21.55;;;6.20;94.20;;;;;;4965735;28;20493;-63
2023/03/01 11:19:12;;;;;;;33.33;21.45;;;6.30;92.80;;;;;;4966246;28;20442;-63
2023/03/01 11:21:41;;;;;;;34.30;20.45;;;6.40;91.80;;;;;;4970339;28;20090;-63
2023/03/01 11:24:12;;;;;;;30.67;19.20;;;6.40;90.60;;;;;;4949697;28;20082;-63
2023/03/01 11:26:42;;;;;;;28.67;19.30;;;6.40;89.90;;;;;;4969101;28;20142;-63
2023/03/01 11:29:18;;;;;;;23.88;15.82;;;6.50;91.70;;;;;;4968357;28;20485;-63
2023/03/01 11:31:45;;;;;;;22.48;15.15;;;6.60;88.20;;;;;;4968694;28;20042;-63
2023/03/01 11:34:21;;;;;;;17.75;13.68;;;6.60;86.50;;;;;;4974756;28;20067;-64
2023/03/01 11:36:54;;;;;;;19.17;13.02;;;6.60;85.60;;;;;;4969855;28;20050;-63
2023/03/01 11:39:35;;;;;;;20.15;13.07;;;6.80;82.40;;;;;;4966683;28;20053;-62
2023/03/01 11:42:15;;;;;;;18.38;12.32;;;6.80;83.10;;;;;;4951267;28;20046;-62
2023/03/01 11:44:43;;;;;;;18.07;13.13;;;6.80;75.90;;;;;;4970552;28;20057;-62
2023/03/01 11:47:23;;;;;;;17.02;12.27;;;6.90;78.10;;;;;;4974554;28;20278;-62
2023/03/01 11:50:15;;;;;;;14.65;11.15;;;7.00;79.00;;;;;;4974212;28;20118;-62
2023/03/01 11:53:19;;;;;;;19.10;10.98;;;7.10;77.10;;;;;;4980690;28;20509;-62
2023/03/01 11:55:57;;;;;;;18.85;10.90;;;7.10;73.00;;;;;;4885294;29;20052;-62
2023/03/01 11:58:48;;;;;;;12.57;8.60;;;7.20;70.00;;;;;;4964094;28;20050;-62
2023/03/01 12:01:28;;;;;;;11.68;8.00;;;7.30;68.40;;;;;;4970681;28;20035;-62
2023/03/01 12:04:07;;;;;;;10.18;7.97;;;7.40;71.70;;;;;;4981591;28;20050;-62
2023/03/01 12:06:46;;;;;;;10.60;7.95;;;7.40;62.60;;;;;;4970118;28;20078;-62
2023/03/01 12:09:38;;;;;;;13.50;8.95;;;7.50;64.70;;;;;;4967842;28;20054;-62
2023/03/01 12:12:10;;;;;;;14.27;8.35;;;7.50;65.80;;;;;;4965771;28;20049;-62
2023/03/01 12:15:09;;;;;;;11.48;7.70;;;7.50;63.00;;;;;;4967074;28;20755;-62
2023/03/01 12:17:47;;;;;;;9.88;7.68;;;7.60;61.90;;;;;;4966596;28;20113;-62
2023/03/01 12:20:27;;;;;;;11.70;8.10;;;7.60;60.30;;;;;;4964808;28;20116;-62
2023/03/01 12:23:16;;;;;;;;;;;7.60;59.90;;;;;;4946931;28;20105;-62
2023/03/01 12:25:43;;;;;;;14.88;8.05;;;7.70;62.40;;;;;;4971746;28;19929;-62
2023/03/01 12:28:38;;;;;;;11.50;7.43;;;7.80;56.00;;;;;;4966911;28;20493;-62
2023/03/01 12:31:56;;;;;;;9.60;7.47;;;7.80;58.90;;;;;;4969831;28;20109;-62
2023/03/01 12:34:43;;;;;;;13.73;7.18;;;7.80;56.80;;;;;;4973090;28;20540;-62
2023/03/01 12:37:14;;;;;;;12.57;8.25;;;7.90;57.30;;;;;;4969477;28;20059;-62
2023/03/01 12:39:56;;;;;;;11.60;7.40;;;7.90;58.60;;;;;;4965064;28;20064;-62
2023/03/01 12:43:00;;;;;;;11.13;7.63;;;8.00;55.40;;;;;;4970526;28;20093;-62
2023/03/01 12:45:50;;;;;;;12.10;8.20;;;8.00;56.90;;;;;;4974194;28;20552;-62
2023/03/01 12:48:21;;;;;;;11.77;8.35;;;8.00;55.10;;;;;;4952897;28;20051;-65
2023/03/01 12:50:52;;;;;;;11.88;8.43;;;8.00;57.80;;;;;;4967957;28;20596;-62
2023/03/01 12:53:26;;;;;;;;;;;8.10;55.00;;;;;;4973067;28;20082;-62